Time;durP1;ratioP1;P1;durP2;ratioP2;P2;SDS_P1;SDS_P2;PMS_P1;PMS_P2;Temp;Humidity;BMP_temperature;BMP_pressure;BME280_temperature;BME280_humidity;BME280_pressure;Samples;Min_cycle;Max_cycle;Signal;HPM_P1;HPM_P2
2023/03/07 00:00:30;;;;;;;50.50;45.30;;;;;;;-0.14;86.64;96554.01;106572;1288;25423;-86
2023/03/07 00:03:15;;;;;;;54.20;49.00;;;;;;;-0.14;86.68;96555.98;106462;1288;25464;-86
2023/03/07 00:05:44;;;;;;;56.60;50.80;;;;;;;-0.15;86.57;96555.43;106513;1285;23914;-85
2023/03/07 00:08:20;;;;;;;54.30;49.00;;;;;;;-0.14;86.64;96554.32;106273;1288;22538;-86
2023/03/07 00:10:48;;;;;;;52.60;47.30;;;;;;;-0.12;86.69;96557.03;106360;1288;24378;-86
2023/03/07 00:13:18;;;;;;;50.60;45.30;;;;;;;-0.05;86.79;96555.98;106257;1288;23946;-86
2023/03/07 00:15:46;;;;;;;52.80;47.60;;;;;;;0.01;86.76;96557.36;106885;1288;25672;-86
2023/03/07 00:18:15;;;;;;;52.50;47.40;;;;;;;0.06;86.84;96553.83;106417;1288;22568;-85
2023/03/07 00:20:43;;;;;;;54.60;49.00;;;;;;;0.07;86.65;96551.92;106551;1288;24215;-86
2023/03/07 00:23:11;;;;;;;53.80;48.60;;;;;;;0.08;86.75;96548.20;106592;1288;22753;-86
2023/03/07 00:25:39;;;;;;;51.90;46.60;;;;;;;0.08;86.78;96547.67;106678;1288;24229;-86
2023/03/07 00:28:07;;;;;;;48.80;43.90;;;;;;;0.12;86.86;96544.77;108548;1288;22478;-87
2023/03/07 00:30:36;;;;;;;49.20;44.10;;;;;;;0.16;86.82;96545.56;108983;1288;24376;-87
2023/03/07 00:33:04;;;;;;;49.00;44.00;;;;;;;0.21;87.10;96542.02;109295;1288;22564;-88
2023/03/07 00:35:32;;;;;;;52.80;47.70;;;;;;;0.25;87.15;96540.58;109409;1288;22555;-88
2023/03/07 00:37:59;;;;;;;51.70;46.80;;;;;;;0.28;87.39;96538.20;109292;1288;22620;-86
2023/03/07 00:40:27;;;;;;;54.00;48.80;;;;;;;0.31;87.19;96540.20;108766;1288;22475;-86
2023/03/07 00:42:55;;;;;;;48.90;44.20;;;;;;;0.34;87.19;96543.01;108310;1288;24392;-87
2023/03/07 00:45:23;;;;;;;48.30;43.30;;;;;;;0.39;87.40;96542.80;108586;1288;22546;-86
2023/03/07 00:47:51;;;;;;;48.40;43.50;;;;;;;0.46;87.33;96538.19;108272;1288;22567;-86
2023/03/07 00:50:20;;;;;;;53.40;48.10;;;;;;;0.51;87.22;96534.79;108301;1288;22486;-86
2023/03/07 00:52:48;;;;;;;54.70;49.40;;;;;;;0.55;87.19;96535.52;108118;1270;22596;-87
2023/03/07 00:55:16;;;;;;;55.60;50.20;;;;;;;0.56;87.03;96532.02;108566;1288;22644;-85
2023/03/07 00:57:44;;;;;;;51.60;46.50;;;;;;;0.57;87.04;96529.10;109095;1288;22603;-86
2023/03/07 01:00:12;;;;;;;48.30;43.50;;;;;;;0.61;86.99;96526.23;109058;1288;22984;-85
2023/03/07 01:02:40;;;;;;;47.30;42.30;;;;;;;0.69;86.96;96522.98;109072;1288;22630;-88
2023/03/07 01:05:08;;;;;;;48.30;43.50;;;;;;;0.74;86.85;96517.66;107511;1288;22560;-87
2023/03/07 01:07:37;;;;;;;50.10;44.80;;;;;;;0.74;86.95;96513.05;108740;1288;22688;-90
2023/03/07 01:10:06;;;;;;;49.00;44.00;;;;;;;0.76;86.87;96512.99;108934;1288;25431;-89
2023/03/07 01:12:34;;;;;;;51.50;46.50;;;;;;;0.73;86.76;96507.70;108198;1286;23386;-87
2023/03/07 01:15:04;;;;;;;51.20;46.20;;;;;;;0.72;86.85;96505.89;106791;1288;22533;-87
2023/03/07 01:17:32;;;;;;;49.70;44.30;;;;;;;0.66;86.66;96501.78;106813;1288;22764;-88
2023/03/07 01:20:51;;;;;;;45.80;40.90;;;;;;;0.65;86.67;96503.11;106578;1288;24245;-87
2023/03/07 01:23:21;;;;;;;43.90;39.50;;;;;;;0.67;86.61;96498.80;106677;1288;22568;-85
2023/03/07 01:25:49;;;;;;;47.00;42.50;;;;;;;0.69;86.89;96496.48;106396;1288;22588;-86
2023/03/07 01:28:18;;;;;;;47.50;42.70;;;;;;;0.70;86.79;96496.09;106812;1288;22578;-86
2023/03/07 01:30:57;;;;;;;48.40;43.80;;;;;;;0.65;86.55;96494.09;108198;1288;23011;-86
2023/03/07 01:33:53;;;;;;;50.70;45.70;;;;;;;0.63;86.66;96496.65;109360;1288;22604;-87
2023/03/07 01:36:28;;;;;;;47.70;42.90;;;;;;;0.62;86.60;96493.79;109185;1288;22554;-89
2023/03/07 01:39:13;;;;;;;44.80;40.10;;;;;;;0.61;86.55;96497.71;107892;1288;22530;-90
2023/03/07 01:41:46;;;;;;;44.60;40.20;;;;;;;0.64;86.58;96495.30;106967;1288;22628;-89
2023/03/07 01:44:19;;;;;;;45.60;41.10;;;;;;;0.65;86.67;96494.15;107030;1288;22807;-90
2023/03/07 01:46:47;;;;;;;46.00;41.70;;;;;;;0.66;86.48;96494.52;106960;1288;22580;-90
2023/03/07 01:49:27;;;;;;;48.10;43.40;;;;;;;0.63;86.37;96494.89;106775;1288;25361;-90
2023/03/07 01:52:22;;;;;;;45.90;41.20;;;;;;;0.61;86.32;96491.45;106546;1288;24262;-87
2023/03/07 01:55:01;;;;;;;45.50;40.90;;;;;;;0.63;86.49;96490.19;106405;1288;23293;-87
2023/03/07 01:57:36;;;;;;;44.40;40.10;;;;;;;0.69;86.37;96484.50;106300;1274;22574;-86
2023/03/07 02:00:07;;;;;;;;;;;;;;;0.72;86.32;96487.55;106537;1288;22588;-88
2023/03/07 02:02:43;;;;;;;47.80;42.90;;;;;;;0.70;86.29;96485.33;106541;1288;22538;-87
2023/03/07 02:05:19;;;;;;;48.20;43.60;;;;;;;0.66;86.19;96486.62;106606;1273;23934;-88
2023/03/07 02:07:49;;;;;;;54.20;48.80;;;;;;;0.62;86.17;96482.55;106348;1288;22565;-88
2023/03/07 02:10:22;;;;;;;51.00;46.00;;;;;;;0.58;86.34;96481.18;106378;1288;24460;-88
2023/03/07 02:12:52;;;;;;;54.80;49.40;;;;;;;0.61;86.30;96481.11;106504;1288;25438;-87
2023/03/07 02:15:21;;;;;;;53.00;47.80;;;;;;;0.61;86.16;96480.11;106304;1288;22619;-88
2023/03/07 02:17:50;;;;;;;52.70;47.50;;;;;;;0.66;86.11;96482.27;106332;1288;25294;-89
2023/03/07 02:20:42;;;;;;;49.20;44.50;;;;;;;0.68;86.15;96480.25;106401;1288;24221;-89
2023/03/07 02:23:23;;;;;;;51.00;46.20;;;;;;;0.65;86.10;96477.19;106481;1288;22534;-88
2023/03/07 02:26:17;;;;;;;50.40;45.30;;;;;;;0.63;86.12;96474.59;106317;1288;23077;-88
2023/03/07 02:28:46;;;;;;;49.40;44.70;;;;;;;0.60;86.04;96472.10;106605;1288;24228;-90
2023/03/07 02:31:15;;;;;;;50.90;46.00;;;;;;;0.57;86.13;96472.75;106344;1288;22592;-90
2023/03/07 02:33:43;;;;;;;44.00;39.80;;;;;;;0.59;85.92;96474.33;106582;1288;22656;-89
2023/03/07 02:36:29;;;;;;;45.30;40.60;;;;;;;0.63;86.00;96473.95;106545;1288;22661;-88
2023/03/07 02:39:12;;;;;;;48.70;44.20;;;;;;;0.69;86.04;96475.38;106530;1288;22546;-87
2023/03/07 02:41:41;;;;;;;52.40;47.20;;;;;;;0.73;85.96;96474.29;106457;1288;24405;-88
2023/03/07 02:44:20;;;;;;;55.90;50.40;;;;;;;0.76;86.13;96475.08;106524;1288;22538;-87
2023/03/07 02:46:48;;;;;;;56.80;51.50;;;;;;;0.77;85.98;96472.44;106285;1288;23054;-87
2023/03/07 02:49:17;;;;;;;53.80;48.60;;;;;;;0.76;85.87;96471.70;106318;1288;22556;-87
2023/03/07 02:51:45;;;;;;;58.00;52.70;;;;;;;0.73;85.72;96474.50;106493;1288;22657;-87
2023/03/07 02:54:13;;;;;;;52.60;47.60;;;;;;;0.70;85.83;96471.92;106417;1288;22539;-87
2023/03/07 02:56:41;;;;;;;54.70;49.40;;;;;;;0.65;85.62;96474.64;106463;1288;22564;-85
2023/03/07 02:59:09;;;;;;;50.40;45.60;;;;;;;0.61;85.42;96464.70;106256;1288;24234;-88
2023/03/07 03:01:37;;;;;;;51.10;45.70;;;;;;;0.63;85.41;96471.30;106460;1288;24100;-88
2023/03/07 03:04:05;;;;;;;60.80;55.60;;;;;;;0.60;85.37;96474.28;106443;1288;22576;-89
2023/03/07 03:06:35;;;;;;;53.30;48.40;;;;;;;0.57;85.64;96469.47;106228;1288;25418;-88
2023/03/07 03:09:03;;;;;;;58.90;53.50;;;;;;;0.57;85.82;96466.81;106505;1268;22542;-88
2023/03/07 03:11:32;;;;;;;59.70;54.30;;;;;;;0.57;85.69;96466.96;106468;1288;23021;-88
2023/03/07 03:14:00;;;;;;;52.20;47.20;;;;;;;0.54;85.58;96467.99;106369;1288;22534;-87
2023/03/07 03:16:28;;;;;;;50.20;45.40;;;;;;;0.55;85.64;96468.73;106263;1288;24395;-89
2023/03/07 03:18:56;;;;;;;46.30;41.80;;;;;;;0.60;85.49;96471.05;106485;1288;22616;-87
2023/03/07 03:21:25;;;;;;;48.20;43.40;;;;;;;0.63;85.62;96469.29;106275;1272;25504;-87
2023/03/07 03:23:54;;;;;;;52.30;47.40;;;;;;;0.66;85.47;96467.00;106602;1288;22700;-86
2023/03/07 03:26:22;;;;;;;52.70;48.10;;;;;;;0.68;85.58;96468.00;106325;1288;24295;-86
2023/03/07 03:28:53;;;;;;;50.00;45.40;;;;;;;0.67;85.46;96467.36;106350;1288;22796;-86
2023/03/07 03:31:21;;;;;;;56.40;51.50;;;;;;;0.67;85.60;96469.38;106394;1288;22544;-88
2023/03/07 03:33:51;;;;;;;53.20;48.40;;;;;;;0.65;85.43;96467.54;106452;1288;22566;-87
2023/03/07 03:36:20;;;;;;;48.90;44.70;;;;;;;0.62;85.29;96473.86;106180;1288;25681;-86
2023/03/07 03:38:48;;;;;;;48.10;43.40;;;;;;;0.56;84.85;96471.85;106325;1288;22668;-88
2023/03/07 03:41:16;;;;;;;45.70;41.40;;;;;;;0.55;84.96;96476.68;106491;1288;22576;-87
2023/03/07 03:43:45;;;;;;;50.30;45.70;;;;;;;0.55;85.21;96475.78;106476;1288;24252;-87
2023/03/07 03:46:15;;;;;;;48.70;44.50;;;;;;;0.56;85.16;96476.20;106264;1266;22742;-88
2023/03/07 03:48:49;;;;;;;51.30;46.90;;;;;;;0.55;85.18;96474.40;106667;1288;22838;-88
2023/03/07 03:51:17;;;;;;;56.00;51.00;;;;;;;0.53;85.14;96474.05;108068;1288;22533;-88
2023/03/07 03:53:45;;;;;;;58.70;53.80;;;;;;;0.50;85.09;96471.77;108870;1288;23157;-87
2023/03/07 03:56:16;;;;;;;52.20;47.30;;;;;;;0.50;85.22;96477.23;109036;1288;22561;-88
2023/03/07 03:58:50;;;;;;;48.50;43.90;;;;;;;0.51;85.11;96475.16;106565;1288;22552;-87
2023/03/07 04:01:20;;;;;;;58.80;53.30;;;;;;;0.56;85.08;96473.76;106572;1288;22544;-88
2023/03/07 04:03:50;;;;;;;49.60;45.00;;;;;;;0.65;85.25;96471.88;106399;1288;25383;-88
2023/03/07 04:06:22;;;;;;;52.90;48.10;;;;;;;0.70;85.22;96473.02;106459;1288;22542;-88
2023/03/07 04:08:52;;;;;;;53.70;48.80;;;;;;;0.72;85.36;96472.55;106398;1288;25446;-88
2023/03/07 04:11:22;;;;;;;51.90;47.40;;;;;;;0.74;85.33;96471.70;106548;1288;24268;-88
2023/03/07 04:13:51;;;;;;;55.30;50.40;;;;;;;0.75;85.41;96472.48;106521;1288;24224;-88
2023/03/07 04:16:23;;;;;;;52.60;48.00;;;;;;;0.76;85.24;96470.52;106463;1288;22878;-87
2023/03/07 04:18:51;;;;;;;55.90;50.90;;;;;;;0.75;85.21;96471.59;106429;1288;25448;-89
2023/03/07 04:21:21;;;;;;;50.00;45.10;;;;;;;0.73;85.17;96470.90;106494;1288;25524;-87
2023/03/07 04:23:54;;;;;;;49.80;45.30;;;;;;;0.76;85.16;96468.57;107405;1288;22815;-86
2023/03/07 04:26:25;;;;;;;47.30;42.60;;;;;;;0.81;85.11;96471.77;106805;1288;24235;-87
2023/03/07 04:28:53;;;;;;;45.40;41.30;;;;;;;0.86;85.05;96467.67;106425;1288;24236;-82
2023/03/07 04:31:30;;;;;;;48.80;44.40;;;;;;;0.88;85.00;96467.94;106455;1288;22553;-83
2023/03/07 04:34:00;;;;;;;49.80;45.10;;;;;;;0.89;85.01;96467.77;106487;1288;24382;-82
2023/03/07 04:36:29;;;;;;;47.60;43.40;;;;;;;0.90;85.26;96467.07;106516;1288;22804;-86
2023/03/07 04:38:57;;;;;;;47.50;43.20;;;;;;;0.89;85.10;96469.45;106489;1288;22536;-88
2023/03/07 04:41:25;;;;;;;51.10;46.60;;;;;;;0.85;84.89;96471.13;106652;1288;22667;-86
2023/03/07 04:44:03;;;;;;;49.40;45.10;;;;;;;0.81;85.08;96467.11;106380;1288;22538;-85
2023/03/07 04:46:32;;;;;;;47.90;43.40;;;;;;;0.78;84.93;96470.20;106336;1288;25544;-84
2023/03/07 04:49:00;;;;;;;47.80;43.50;;;;;;;0.80;85.04;96470.77;106250;1288;22657;-86
2023/03/07 04:51:28;;;;;;;45.80;41.50;;;;;;;0.85;85.02;96467.41;106447;1281;26756;-87
2023/03/07 04:53:57;;;;;;;47.70;43.50;;;;;;;0.92;85.15;96471.58;106779;1288;23919;-89
2023/03/07 04:56:25;;;;;;;48.40;44.00;;;;;;;0.95;84.87;96473.84;106504;1288;22584;-89
2023/03/07 04:58:54;;;;;;;50.60;46.00;;;;;;;0.98;84.95;96474.41;107071;1288;22708;-89
2023/03/07 05:01:23;;;;;;;45.80;41.60;;;;;;;0.97;84.90;96471.66;106815;1288;23484;-87
2023/03/07 05:03:51;;;;;;;49.20;44.90;;;;;;;0.93;84.65;96472.20;107235;1288;24277;-87
2023/03/07 05:06:20;;;;;;;53.10;48.50;;;;;;;0.87;84.65;96468.69;106909;1288;22528;-88
2023/03/07 05:08:50;;;;;;;54.70;49.70;;;;;;;0.83;84.67;96466.95;106776;1288;22559;-89
2023/03/07 05:11:19;;;;;;;49.80;45.30;;;;;;;0.80;84.80;96460.42;106901;1286;22615;-89
2023/03/07 05:13:48;;;;;;;48.90;44.40;;;;;;;0.80;84.97;96461.33;106681;1288;22593;-88
2023/03/07 05:16:19;;;;;;;49.40;44.70;;;;;;;0.85;84.81;96458.02;106891;1288;24363;-88
2023/03/07 05:18:48;;;;;;;48.10;43.80;;;;;;;0.90;84.79;96459.17;106915;1288;25459;-85
2023/03/07 05:21:16;;;;;;;50.90;46.40;;;;;;;0.93;84.78;96461.55;107394;1288;22560;-90
2023/03/07 05:23:45;;;;;;;51.90;47.20;;;;;;;0.93;84.86;96461.17;109162;1288;22756;-93
2023/03/07 05:26:13;;;;;;;53.20;48.50;;;;;;;0.92;84.73;96460.27;108669;1288;22741;-90
2023/03/07 05:28:42;;;;;;;56.30;51.30;;;;;;;0.91;84.76;96465.00;106464;1288;25501;-88
2023/03/07 05:31:10;;;;;;;51.60;47.00;;;;;;;0.88;84.56;96463.23;106541;1288;24217;-85
2023/03/07 05:33:41;;;;;;;60.20;54.90;;;;;;;0.83;84.31;96466.36;106383;1288;24193;-90
2023/03/07 05:36:10;;;;;;;61.40;55.80;;;;;;;0.77;84.52;96465.32;107151;1288;24402;-90
2023/03/07 05:38:38;;;;;;;49.20;44.80;;;;;;;0.77;84.60;96468.04;106545;1268;22809;-89
2023/03/07 05:41:06;;;;;;;64.10;57.30;;;;;;;0.78;84.52;96464.89;107288;1287;22494;-82
2023/03/07 05:43:34;;;;;;;50.10;45.50;;;;;;;0.78;84.28;96466.21;107023;1288;22596;-85
2023/03/07 05:46:02;;;;;;;56.60;51.90;;;;;;;0.76;84.50;96466.49;106210;1288;24077;-84
2023/03/07 05:48:30;;;;;;;56.30;51.40;;;;;;;0.75;84.50;96464.06;106555;1288;22611;-86
2023/03/07 05:51:02;;;;;;;58.50;53.50;;;;;;;0.73;84.48;96463.52;106488;1288;22578;-85
2023/03/07 05:53:30;;;;;;;62.00;56.30;;;;;;;0.72;84.76;96468.31;106101;1288;22793;-86
2023/03/07 05:55:59;;;;;;;70.40;64.30;;;;;;;0.68;84.55;96461.21;106355;1288;22785;-84
2023/03/07 05:58:27;;;;;;;67.20;61.50;;;;;;;0.68;84.57;96466.37;106379;1288;24058;-85
2023/03/07 06:00:55;;;;;;;64.60;58.00;;;;;;;0.63;84.37;96462.92;106361;1288;22676;-86
2023/03/07 06:03:23;;;;;;;64.60;59.00;;;;;;;0.63;84.39;96465.52;106504;1288;24411;-85
2023/03/07 06:05:51;;;;;;;62.00;56.30;;;;;;;0.66;84.45;96461.02;106481;1288;25646;-85
2023/03/07 06:08:20;;;;;;;65.70;60.00;;;;;;;0.71;84.49;96465.98;106424;1288;25557;-86
2023/03/07 06:10:49;;;;;;;61.60;55.90;;;;;;;0.73;84.49;96465.70;106281;1288;24380;-84
2023/03/07 06:13:20;;;;;;;57.10;51.80;;;;;;;0.71;84.40;96463.86;106457;1288;22541;-86
2023/03/07 06:15:49;;;;;;;62.70;57.20;;;;;;;0.69;84.22;96469.54;106391;1288;25540;-86
2023/03/07 06:18:19;;;;;;;61.20;55.60;;;;;;;0.65;84.41;96471.08;106422;1288;22757;-87
2023/03/07 06:20:58;;;;;;;67.90;61.40;;;;;;;0.62;84.25;96470.35;106414;1288;22563;-85
2023/03/07 06:23:29;;;;;;;63.40;57.50;;;;;;;0.54;84.14;96471.17;106362;1288;22780;-86
2023/03/07 06:25:58;;;;;;;58.40;53.10;;;;;;;0.51;84.35;96470.98;106299;1288;25526;-85
2023/03/07 06:28:26;;;;;;;61.20;55.70;;;;;;;0.55;84.31;96468.30;106395;1288;22614;-85
2023/03/07 06:30:54;;;;;;;63.00;57.60;;;;;;;0.57;84.32;96469.77;106296;1288;23052;-85
2023/03/07 06:33:23;;;;;;;71.30;65.00;;;;;;;0.59;84.27;96472.65;106534;1288;22634;-86
2023/03/07 06:35:51;;;;;;;64.90;59.10;;;;;;;0.61;84.34;96470.24;106258;1288;25372;-84
2023/03/07 06:38:19;;;;;;;65.20;59.30;;;;;;;0.62;84.63;96470.36;106247;1288;23164;-84
2023/03/07 06:40:55;;;;;;;55.80;50.80;;;;;;;0.66;84.45;96468.27;106440;1288;24391;-84
2023/03/07 06:43:23;;;;;;;52.90;47.90;;;;;;;0.70;84.47;96465.49;106787;1288;22629;-84
2023/03/07 06:45:51;;;;;;;50.70;45.90;;;;;;;0.74;84.35;96467.29;108199;1288;22543;-84
2023/03/07 06:48:20;;;;;;;47.30;42.80;;;;;;;0.81;84.19;96465.89;108054;1288;26742;-84
2023/03/07 06:50:48;;;;;;;53.70;48.70;;;;;;;0.87;84.34;96467.88;107246;1274;22646;-85
2023/03/07 06:53:16;;;;;;;50.80;45.90;;;;;;;0.95;84.39;96466.47;106393;1288;22764;-85
2023/03/07 06:55:48;;;;;;;52.00;47.20;;;;;;;0.99;84.36;96463.69;106420;1277;22660;-85
2023/03/07 06:58:17;;;;;;;54.40;49.30;;;;;;;1.02;84.43;96465.27;107296;1288;22544;-83
2023/03/07 07:00:45;;;;;;;53.80;49.10;;;;;;;1.08;84.35;96460.95;107318;1288;22544;-83
2023/03/07 07:03:14;;;;;;;54.20;49.20;;;;;;;1.14;84.46;96460.81;107107;1266;22481;-84
2023/03/07 07:05:43;;;;;;;50.00;44.90;;;;;;;1.21;84.19;96460.20;107309;1288;22540;-84
2023/03/07 07:08:11;;;;;;;47.80;43.50;;;;;;;1.29;84.10;96460.73;107111;1288;22529;-84
2023/03/07 07:10:39;;;;;;;46.10;41.90;;;;;;;1.40;84.19;96457.11;106751;1288;22585;-83
2023/03/07 07:13:07;;;;;;;44.80;40.90;;;;;;;1.51;84.29;96457.58;106373;1288;26062;-85
2023/03/07 07:15:35;;;;;;;41.10;37.30;;;;;;;1.61;84.07;96459.05;107206;1288;22545;-85
2023/03/07 07:18:03;;;;;;;43.70;39.70;;;;;;;1.68;83.77;96457.31;106359;1288;24343;-85
2023/03/07 07:20:32;;;;;;;46.80;42.40;;;;;;;1.72;83.45;96455.58;106550;1287;24428;-86
2023/03/07 07:23:01;;;;;;;47.20;42.80;;;;;;;1.79;83.64;96453.14;106477;1288;22792;-86
2023/03/07 07:25:29;;;;;;;45.10;41.10;;;;;;;1.84;82.74;96450.27;106284;1288;24258;-87
2023/03/07 07:27:57;;;;;;;40.90;37.10;;;;;;;1.86;81.94;96453.88;106419;1288;23317;-87
2023/03/07 07:30:25;;;;;;;44.00;40.10;;;;;;;1.87;81.35;96447.66;106419;1288;22670;-87
2023/03/07 07:32:55;;;;;;;36.10;32.90;;;;;;;1.93;81.94;96449.46;106425;1288;22550;-87
2023/03/07 07:35:24;;;;;;;40.50;36.60;;;;;;;2.06;81.90;96454.83;106438;1288;22658;-85
2023/03/07 07:37:53;;;;;;;36.40;33.10;;;;;;;2.16;81.39;96451.81;106445;1288;25644;-86
2023/03/07 07:40:21;;;;;;;39.00;35.70;;;;;;;2.21;80.27;96450.17;106471;1287;24293;-85
2023/03/07 07:42:53;;;;;;;36.00;32.90;;;;;;;2.21;79.88;96451.50;106463;1288;24318;-86
2023/03/07 07:45:42;;;;;;;42.80;39.10;;;;;;;2.23;78.78;96452.61;106525;1288;22653;-85
2023/03/07 07:48:14;;;;;;;42.80;38.70;;;;;;;2.23;77.81;96449.45;106321;1288;22610;-86
2023/03/07 07:50:42;;;;;;;43.20;39.20;;;;;;;2.26;77.89;96452.41;106614;1288;24382;-85
2023/03/07 07:53:10;;;;;;;40.00;36.40;;;;;;;2.27;77.75;96448.21;106289;1288;25518;-85
2023/03/07 07:55:39;;;;;;;38.70;34.70;;;;;;;2.32;77.16;96447.15;106329;1288;23081;-86
2023/03/07 07:58:07;;;;;;;40.20;36.20;;;;;;;2.37;77.70;96444.96;106613;1288;23229;-86
2023/03/07 08:00:35;;;;;;;35.90;32.70;;;;;;;2.44;77.56;96448.36;107455;1287;22712;-86
2023/03/07 08:03:06;;;;;;;35.40;32.10;;;;;;;2.51;76.67;96446.59;106497;1276;22675;-86
2023/03/07 08:05:34;;;;;;;59.60;53.80;;;;;;;2.55;76.67;96446.86;106434;1288;22562;-85
2023/03/07 08:08:02;;;;;;;40.60;36.80;;;;;;;2.61;76.09;96445.10;106486;1288;25717;-86
2023/03/07 08:10:30;;;;;;;42.20;38.10;;;;;;;2.64;75.90;96443.62;106468;1288;22579;-85
2023/03/07 08:12:58;;;;;;;36.70;33.50;;;;;;;2.68;75.28;96446.77;106278;1288;22569;-86
2023/03/07 08:15:26;;;;;;;37.90;34.60;;;;;;;2.70;74.85;96443.35;106346;1288;22737;-87
2023/03/07 08:17:54;;;;;;;34.10;31.10;;;;;;;2.69;74.42;96441.27;106375;1288;22546;-84
2023/03/07 08:20:24;;;;;;;32.20;29.20;;;;;;;2.66;73.55;96444.72;106473;1288;24391;-86
2023/03/07 08:22:52;;;;;;;32.60;29.50;;;;;;;2.65;74.70;96433.89;106466;1288;24397;-86
2023/03/07 08:25:22;;;;;;;32.90;29.80;;;;;;;2.72;74.95;96426.67;106385;1288;24385;-87
2023/03/07 08:27:53;;;;;;;34.90;31.80;;;;;;;2.84;75.56;96426.58;106471;1288;22748;-87
2023/03/07 08:30:23;;;;;;;33.30;30.30;;;;;;;2.96;75.13;96426.33;106413;1288;24226;-85
2023/03/07 08:32:53;;;;;;;42.10;37.50;;;;;;;3.05;75.44;96424.46;106436;1288;25529;-86
2023/03/07 08:35:24;;;;;;;43.70;39.30;;;;;;;3.12;74.46;96425.55;106364;1288;22611;-86
2023/03/07 08:37:59;;;;;;;35.80;32.40;;;;;;;3.16;74.38;96425.11;106438;1288;24422;-85
2023/03/07 08:40:29;;;;;;;33.40;30.40;;;;;;;3.20;73.55;96424.31;106427;1288;25438;-85
2023/03/07 08:42:58;;;;;;;30.50;27.70;;;;;;;3.22;73.66;96428.45;106379;1287;24363;-86
2023/03/07 08:45:26;;;;;;;34.40;31.10;;;;;;;3.26;73.36;96430.20;106396;1288;23033;-85
2023/03/07 08:47:55;;;;;;;31.10;28.30;;;;;;;3.31;72.74;96433.43;106309;1288;22526;-86
2023/03/07 08:50:26;;;;;;;32.80;29.60;;;;;;;3.36;72.34;96426.23;106539;1288;22554;-86
2023/03/07 08:52:56;;;;;;;32.20;29.40;;;;;;;3.38;71.85;96425.77;106635;1288;22596;-85
2023/03/07 08:55:24;;;;;;;32.80;29.70;;;;;;;3.41;72.04;96427.27;107008;1288;23019;-85
2023/03/07 08:57:52;;;;;;;28.90;26.30;;;;;;;3.47;71.59;96423.84;106662;1264;24289;-85
2023/03/07 09:00:20;;;;;;;31.70;28.90;;;;;;;3.52;71.57;96420.77;106458;1288;22543;-86
2023/03/07 09:02:48;;;;;;;30.30;27.40;;;;;;;3.59;71.14;96421.32;106410;1288;22540;-86
2023/03/07 09:05:16;;;;;;;31.10;28.30;;;;;;;3.62;69.51;96429.63;106446;1287;24258;-88
2023/03/07 09:07:44;;;;;;;28.90;26.20;;;;;;;3.63;69.93;96427.96;106528;1288;22662;-84
2023/03/07 09:10:12;;;;;;;29.80;27.10;;;;;;;3.67;68.80;96417.63;106370;1288;25433;-85
2023/03/07 09:12:42;;;;;;;29.90;27.00;;;;;;;3.74;69.20;96421.67;106699;1288;22485;-87
2023/03/07 09:15:10;;;;;;;32.50;29.50;;;;;;;3.84;69.21;96418.36;107219;1288;26675;-84
2023/03/07 09:17:38;;;;;;;33.00;29.90;;;;;;;3.92;68.80;96417.27;106438;1288;25416;-85
2023/03/07 09:20:07;;;;;;;44.80;40.10;;;;;;;4.01;69.00;96417.30;106391;1288;22673;-85
2023/03/07 09:22:35;;;;;;;31.00;28.20;;;;;;;4.11;68.11;96413.08;106409;1288;24274;-85
2023/03/07 09:25:04;;;;;;;43.90;39.80;;;;;;;4.11;67.59;96413.48;106440;1288;25362;-85
2023/03/07 09:27:32;;;;;;;42.50;38.40;;;;;;;4.18;68.28;96406.60;106421;1288;25640;-84
2023/03/07 09:30:00;;;;;;;41.60;37.60;;;;;;;4.27;67.11;96400.95;106421;1288;24445;-85
2023/03/07 09:32:28;;;;;;;35.40;32.10;;;;;;;4.30;66.64;96398.34;106461;1288;22862;-86
2023/03/07 09:34:56;;;;;;;23.30;21.30;;;;;;;4.28;65.38;96401.14;106435;1288;25368;-84
2023/03/07 09:37:24;;;;;;;22.70;20.50;;;;;;;4.23;65.00;96391.69;106434;1268;22562;-84
2023/03/07 09:39:51;;;;;;;22.10;19.90;;;;;;;4.21;64.85;96390.55;106252;1288;25308;-85
2023/03/07 09:42:34;;;;;;;24.30;20.90;;;;;;;4.19;65.09;96384.83;106396;1288;22694;-84
2023/03/07 09:45:17;;;;;;;25.90;23.60;;;;;;;4.18;64.04;96394.35;106261;1276;23918;-86
2023/03/07 09:47:59;;;;;;;24.20;22.00;;;;;;;4.12;63.81;96391.35;106856;1288;22547;-86
2023/03/07 09:50:27;;;;;;;27.00;24.10;;;;;;;4.07;63.24;96386.20;106518;1288;24112;-86
2023/03/07 09:53:01;;;;;;;24.20;21.90;;;;;;;4.05;63.49;96385.51;106601;1288;23079;-86
2023/03/07 09:55:31;;;;;;;26.30;23.90;;;;;;;4.02;63.76;96377.66;106542;1288;22539;-85
2023/03/07 09:58:05;;;;;;;27.60;25.10;;;;;;;3.99;63.81;96376.33;106451;1288;22576;-85
2023/03/07 10:00:41;;;;;;;25.50;23.00;;;;;;;3.97;63.87;96379.47;106399;1277;24339;-86
2023/03/07 10:03:40;;;;;;;24.80;22.70;;;;;;;3.96;64.21;96379.79;106469;1288;25327;-85
2023/03/07 10:06:22;;;;;;;22.90;20.80;;;;;;;3.92;64.68;96376.67;106371;1288;24258;-87
2023/03/07 10:08:51;;;;;;;24.30;22.20;;;;;;;3.87;63.95;96375.84;106553;1288;23367;-85
2023/03/07 10:11:28;;;;;;;25.60;23.20;;;;;;;3.81;64.22;96383.02;106403;1288;25492;-85
2023/03/07 10:14:34;;;;;;;29.10;26.00;;;;;;;3.76;64.34;96383.44;106387;1288;22559;-87
2023/03/07 10:17:05;;;;;;;27.10;24.60;;;;;;;3.73;63.97;96384.11;107067;1288;22536;-86
2023/03/07 10:19:42;;;;;;;26.00;23.50;;;;;;;3.70;64.43;96378.80;107355;1288;22556;-86
2023/03/07 10:22:35;;;;;;;25.20;22.90;;;;;;;3.69;64.78;96378.50;107409;1288;22633;-86
2023/03/07 10:25:25;;;;;;;25.00;22.80;;;;;;;3.69;64.35;96375.69;106369;1287;174894;-87
2023/03/07 10:28:06;;;;;;;26.30;23.80;;;;;;;3.70;63.68;96377.51;106233;1271;24252;-86
2023/03/07 10:30:34;;;;;;;27.10;24.40;;;;;;;3.71;63.15;96372.23;106410;1288;22647;-87
2023/03/07 10:33:06;;;;;;;27.60;25.20;;;;;;;3.71;63.18;96371.96;106374;1288;22746;-85
2023/03/07 10:35:42;;;;;;;25.60;23.20;;;;;;;3.74;63.46;96371.05;106455;1288;22573;-84
2023/03/07 10:38:32;;;;;;;24.00;21.70;;;;;;;3.81;63.70;96364.64;106385;1288;22527;-85
2023/03/07 10:41:05;;;;;;;26.40;23.90;;;;;;;4.00;63.54;96360.91;106440;1288;23621;-85
2023/03/07 10:43:33;;;;;;;22.90;20.90;;;;;;;4.23;62.96;96346.84;106428;1288;22549;-86
2023/03/07 10:46:15;;;;;;;22.80;20.70;;;;;;;4.48;62.63;96349.83;106288;1288;24412;-85
2023/03/07 10:48:57;;;;;;;23.40;21.40;;;;;;;4.73;62.35;96341.10;106756;1288;22802;-85
2023/03/07 10:51:25;;;;;;;26.80;24.10;;;;;;;4.90;62.30;96331.04;106389;1288;22646;-86
2023/03/07 10:53:55;;;;;;;21.40;19.40;;;;;;;4.96;60.42;96330.68;106476;1288;22540;-86
2023/03/07 10:56:23;;;;;;;24.60;22.30;;;;;;;4.96;60.19;96333.63;107033;1288;22534;-86
2023/03/07 10:59:09;;;;;;;27.50;24.60;;;;;;;4.92;59.35;96332.19;107491;1288;25426;-85
2023/03/07 11:01:50;;;;;;;27.00;24.40;;;;;;;4.79;59.59;96337.52;107038;1288;22546;-85
2023/03/07 11:04:20;;;;;;;33.70;30.50;;;;;;;4.67;59.81;96320.05;106976;1288;24183;-85
2023/03/07 11:06:54;;;;;;;26.70;24.10;;;;;;;4.62;59.88;96318.29;106534;1287;25339;-87
2023/03/07 11:09:34;;;;;;;26.20;23.90;;;;;;;4.55;59.62;96321.63;106344;1288;24449;-86
2023/03/07 11:12:05;;;;;;;26.80;24.40;;;;;;;4.49;59.33;96318.46;106413;1288;22645;-85
2023/03/07 11:14:46;;;;;;;27.30;24.80;;;;;;;4.39;59.54;96321.59;106429;1288;22542;-85
2023/03/07 11:17:22;;;;;;;34.10;30.60;;;;;;;4.32;60.08;96318.61;106272;1288;25389;-85
2023/03/07 11:19:58;;;;;;;39.20;28.50;;;;;;;4.32;60.55;96315.10;106468;1288;22556;-84
2023/03/07 11:22:34;;;;;;;27.80;25.00;;;;;;;4.29;60.59;96313.77;106392;1288;22756;-86
2023/03/07 11:25:09;;;;;;;31.20;28.10;;;;;;;4.24;60.77;96309.87;106456;1288;24091;-85
2023/03/07 11:27:45;;;;;;;31.30;28.30;;;;;;;4.21;60.73;96314.05;106417;1288;22654;-85
2023/03/07 11:30:27;;;;;;;25.80;23.20;;;;;;;4.17;60.92;96302.23;106425;1288;24301;-84
2023/03/07 11:33:12;;;;;;;27.20;24.30;;;;;;;4.24;60.98;96302.59;106410;1288;24082;-84
2023/03/07 11:35:57;;;;;;;24.90;22.60;;;;;;;4.32;60.95;96304.66;106122;1288;22643;-86